createdAt,value
2022-11-16T00:00:17.725Z,0.73
2022-11-16T00:02:44.939Z,0.80
2022-11-16T00:05:12.033Z,0.73
2022-11-16T00:07:39.366Z,0.60
2022-11-16T00:10:06.793Z,0.70
2022-11-16T00:12:33.862Z,0.70
2022-11-16T00:15:00.953Z,0.73
2022-11-16T00:17:28.095Z,0.60
2022-11-16T00:19:55.177Z,0.73
2022-11-16T00:22:22.266Z,0.77
2022-11-16T00:24:49.544Z,0.67
2022-11-16T00:27:16.706Z,0.53
2022-11-16T00:29:43.831Z,0.83
2022-11-16T00:32:12.397Z,0.60
2022-11-16T00:34:40.204Z,0.70
2022-11-16T00:37:07.295Z,0.80
2022-11-16T00:39:34.410Z,0.60
2022-11-16T00:42:01.488Z,0.60
2022-11-16T00:44:28.584Z,0.60
2022-11-16T00:46:55.684Z,0.50
2022-11-16T00:49:22.762Z,0.40
2022-11-16T00:51:49.854Z,0.60
2022-11-16T00:54:16.936Z,0.50
2022-11-16T00:56:44.110Z,0.57
2022-11-16T00:59:11.186Z,0.83
2022-11-16T01:01:38.344Z,0.70
2022-11-16T01:04:05.509Z,0.43
2022-11-16T01:06:32.579Z,0.60
2022-11-16T01:08:59.681Z,0.47
2022-11-16T01:11:45.708Z,0.57
2022-11-16T01:14:12.885Z,0.60
2022-11-16T01:16:39.979Z,0.63
2022-11-16T01:19:07.233Z,0.60
2022-11-16T01:21:34.977Z,0.50
2022-11-16T01:24:02.242Z,0.60
2022-11-16T01:26:29.518Z,0.57
2022-11-16T01:28:56.642Z,0.50
2022-11-16T01:31:23.701Z,0.50
2022-11-16T01:33:50.778Z,0.40
2022-11-16T01:36:17.970Z,0.50
2022-11-16T01:38:46.147Z,0.50
2022-11-16T01:41:18.048Z,0.40
2022-11-16T01:44:00.366Z,0.33
2022-11-16T01:46:28.727Z,0.50
2022-11-16T01:49:01.236Z,0.37
2022-11-16T01:51:28.610Z,0.47
2022-11-16T01:53:56.309Z,0.60
2022-11-16T01:56:24.729Z,0.70
2022-11-16T01:58:52.483Z,0.40
2022-11-16T02:01:19.716Z,0.60
2022-11-16T02:03:46.865Z,0.37
2022-11-16T02:06:29.835Z,0.50
2022-11-16T02:09:34.268Z,0.63
2022-11-16T02:12:20.011Z,0.30
2022-11-16T02:15:05.872Z,0.60
2022-11-16T02:17:36.329Z,0.47
2022-11-16T02:20:22.239Z,0.50
2022-11-16T02:22:58.510Z,0.80
2022-11-16T02:25:35.981Z,0.50
2022-11-16T02:28:16.382Z,0.50
2022-11-16T02:30:46.687Z,0.50
2022-11-16T02:33:15.894Z,0.47
2022-11-16T02:35:44.348Z,0.30
2022-11-16T02:38:31.954Z,0.47
2022-11-16T02:41:02.413Z,0.43
2022-11-16T02:43:31.841Z,0.50
2022-11-16T02:46:01.102Z,0.50
2022-11-16T02:48:30.184Z,0.60
2022-11-16T02:50:57.648Z,0.40
2022-11-16T02:53:25.687Z,0.60
2022-11-16T02:55:53.028Z,0.63
2022-11-16T02:58:25.305Z,0.50
2022-11-16T03:00:58.589Z,0.40
2022-11-16T03:03:25.729Z,0.40
2022-11-16T03:06:04.289Z,0.30
2022-11-16T03:08:33.240Z,0.67
2022-11-16T03:11:21.660Z,0.60
2022-11-16T03:13:49.381Z,0.40
2022-11-16T03:16:36.292Z,0.80
2022-11-16T03:19:06.156Z,0.70
2022-11-16T03:21:33.260Z,0.50
2022-11-16T03:24:00.795Z,0.53
2022-11-16T03:26:32.725Z,0.50
2022-11-16T03:29:08.701Z,0.67
2022-11-16T03:31:39.876Z,0.60
2022-11-16T03:34:10.793Z,0.50
2022-11-16T03:36:40.769Z,0.50
2022-11-16T03:39:21.962Z,0.63
2022-11-16T03:41:49.565Z,0.50
2022-11-16T03:44:18.131Z,0.57
2022-11-16T03:46:46.092Z,0.60
2022-11-16T03:49:13.145Z,0.40
2022-11-16T03:51:40.240Z,0.40
2022-11-16T03:54:07.405Z,0.60
2022-11-16T03:56:34.529Z,0.50
2022-11-16T03:59:01.627Z,0.50
2022-11-16T04:01:28.796Z,0.50
2022-11-16T04:03:55.953Z,0.50
2022-11-16T04:06:41.879Z,0.60
2022-11-16T04:09:28.987Z,0.60
2022-11-16T04:12:14.734Z,0.40
2022-11-16T04:15:00.705Z,0.40
2022-11-16T04:17:46.669Z,0.50
2022-11-16T04:20:33.019Z,0.47
2022-11-16T04:23:19.003Z,0.60
2022-11-16T04:25:47.287Z,0.57
2022-11-16T04:28:16.140Z,0.70
2022-11-16T04:31:15.254Z,0.43
2022-11-16T04:34:01.368Z,0.50
2022-11-16T04:36:47.240Z,0.60
2022-11-16T04:39:14.348Z,0.60
2022-11-16T04:42:00.144Z,0.40
2022-11-16T04:44:47.167Z,0.37
2022-11-16T04:47:14.300Z,0.80
2022-11-16T04:49:41.369Z,0.67
2022-11-16T04:52:08.889Z,0.70
2022-11-16T04:54:35.976Z,0.60
2022-11-16T04:57:03.099Z,0.60
2022-11-16T04:59:30.223Z,0.63
2022-11-16T05:02:09.383Z,0.53
2022-11-16T05:04:40.625Z,0.60
2022-11-16T05:07:11.959Z,0.73
2022-11-16T05:09:43.846Z,0.50
2022-11-16T05:12:18.654Z,0.40
2022-11-16T05:14:46.338Z,0.50
2022-11-16T05:17:13.748Z,0.67
2022-11-16T05:19:59.559Z,0.77
2022-11-16T05:22:26.853Z,0.40
2022-11-16T05:24:54.006Z,0.70
2022-11-16T05:27:21.820Z,0.43
2022-11-16T05:29:49.734Z,0.40
2022-11-16T05:32:16.995Z,0.70
2022-11-16T05:34:44.173Z,0.30
2022-11-16T05:37:11.719Z,0.60
2022-11-16T05:39:39.020Z,0.50
2022-11-16T05:42:06.452Z,0.53
2022-11-16T05:44:33.560Z,0.57
2022-11-16T05:47:00.754Z,0.67
2022-11-16T05:49:28.206Z,0.50
2022-11-16T05:51:55.336Z,0.90
2022-11-16T05:54:24.738Z,0.60
2022-11-16T05:56:52.368Z,0.80
2022-11-16T05:59:20.731Z,0.67
2022-11-16T06:01:48.114Z,0.63
2022-11-16T06:04:15.353Z,0.60
2022-11-16T06:06:42.526Z,0.83
2022-11-16T06:09:11.080Z,0.67
2022-11-16T06:11:38.230Z,0.80
2022-11-16T06:14:05.777Z,0.60
2022-11-16T06:16:32.854Z,0.70
2022-11-16T06:19:00.029Z,0.60
2022-11-16T06:21:27.198Z,0.60
2022-11-16T06:23:54.369Z,0.70
2022-11-16T06:26:21.510Z,0.70
2022-11-16T06:28:48.622Z,0.87
2022-11-16T06:31:16.927Z,0.67
2022-11-16T06:33:44.161Z,0.60
2022-11-16T06:36:11.280Z,0.63
2022-11-16T06:38:38.724Z,0.87
2022-11-16T06:41:05.898Z,0.90
2022-11-16T06:43:33.249Z,0.73
2022-11-16T06:46:00.321Z,0.70
2022-11-16T06:48:27.552Z,0.70
2022-11-16T06:50:54.717Z,0.57
2022-11-16T06:53:27.596Z,0.70
2022-11-16T06:55:56.277Z,0.70
2022-11-16T06:58:23.423Z,0.80
2022-11-16T07:00:50.761Z,0.70
2022-11-16T07:03:17.859Z,0.80
2022-11-16T07:05:44.946Z,0.70
2022-11-16T07:08:12.023Z,0.80
2022-11-16T07:10:39.318Z,1.10
2022-11-16T07:13:06.961Z,0.57
2022-11-16T07:15:34.133Z,0.70
2022-11-16T07:18:07.329Z,0.80
2022-11-16T07:20:35.590Z,0.87
2022-11-16T07:23:03.572Z,0.80
2022-11-16T07:25:32.893Z,0.80
2022-11-16T07:28:00.147Z,0.90
2022-11-16T07:30:27.298Z,0.87
2022-11-16T07:32:58.846Z,0.77
2022-11-16T07:35:26.201Z,0.70
2022-11-16T07:37:53.310Z,0.70
2022-11-16T07:40:21.243Z,0.80
2022-11-16T07:42:48.412Z,0.70
2022-11-16T07:45:15.615Z,0.70
2022-11-16T07:47:42.748Z,0.70
2022-11-16T07:50:10.897Z,0.77
2022-11-16T07:52:38.095Z,0.87
2022-11-16T07:55:05.822Z,0.67
2022-11-16T07:57:33.052Z,0.80
2022-11-16T08:00:00.481Z,0.70
2022-11-16T08:02:27.614Z,0.60
2022-11-16T08:04:55.107Z,0.80
2022-11-16T08:07:22.263Z,0.73
2022-11-16T08:09:50.011Z,0.70
2022-11-16T08:12:17.933Z,0.50
2022-11-16T08:14:45.070Z,0.90
2022-11-16T08:17:12.211Z,0.80
2022-11-16T08:19:40.222Z,0.90
2022-11-16T08:22:07.314Z,0.93
2022-11-16T08:24:34.476Z,0.70
2022-11-16T08:27:01.554Z,0.73
2022-11-16T08:29:29.411Z,0.90
2022-11-16T08:31:56.571Z,0.77
2022-11-16T08:34:23.702Z,0.83
2022-11-16T08:36:50.909Z,0.57
2022-11-16T08:39:18.004Z,0.67
2022-11-16T08:41:45.597Z,0.70
2022-11-16T08:44:12.833Z,0.80
2022-11-16T08:46:40.128Z,0.70
2022-11-16T08:49:07.339Z,0.50
2022-11-16T08:51:34.473Z,0.77
2022-11-16T08:54:03.631Z,0.60
2022-11-16T08:56:30.793Z,0.77
2022-11-16T08:58:59.332Z,0.57
2022-11-16T09:01:27.917Z,0.63
2022-11-16T09:03:55.388Z,0.70
2022-11-16T09:06:22.848Z,0.60
2022-11-16T09:08:50.184Z,0.63
2022-11-16T09:11:18.403Z,0.67
2022-11-16T09:13:46.446Z,0.50
2022-11-16T09:16:16.509Z,0.70
2022-11-16T09:18:44.261Z,0.77
2022-11-16T09:21:11.332Z,0.67
2022-11-16T09:23:38.429Z,0.60
2022-11-16T09:26:06.354Z,0.80
2022-11-16T09:28:34.126Z,0.60
2022-11-16T09:31:02.662Z,0.40
2022-11-16T09:33:30.728Z,0.60
2022-11-16T09:36:02.587Z,0.60
2022-11-16T09:38:40.685Z,0.73
2022-11-16T09:41:16.799Z,0.53
2022-11-16T09:43:51.673Z,0.60
2022-11-16T09:46:18.714Z,0.77
2022-11-16T09:48:45.821Z,0.70
2022-11-16T09:51:14.690Z,0.70
2022-11-16T09:53:57.113Z,0.80
2022-11-16T09:56:25.524Z,0.70
2022-11-16T09:59:05.059Z,0.50
2022-11-16T10:01:37.704Z,0.73
2022-11-16T10:04:08.351Z,0.53
2022-11-16T10:06:45.395Z,0.57
2022-11-16T10:09:13.052Z,0.60
2022-11-16T10:11:46.348Z,0.70
2022-11-16T10:14:13.410Z,0.60
2022-11-16T10:17:13.009Z,0.83
2022-11-16T10:19:58.563Z,0.60
2022-11-16T10:22:25.632Z,0.80
2022-11-16T10:24:58.221Z,0.80
2022-11-16T10:27:28.376Z,0.60
2022-11-16T10:30:01.681Z,0.63
2022-11-16T10:32:33.580Z,0.60
2022-11-16T10:35:12.996Z,0.80
2022-11-16T10:37:41.807Z,0.63
2022-11-16T10:40:16.974Z,0.70
2022-11-16T10:42:44.972Z,0.80
2022-11-16T10:45:12.066Z,0.93
2022-11-16T10:47:42.889Z,1.30
2022-11-16T10:50:22.227Z,0.80
2022-11-16T10:52:49.347Z,0.40
2022-11-16T10:55:16.810Z,0.80
2022-11-16T10:58:03.092Z,0.50
2022-11-16T11:00:37.838Z,0.70
2022-11-16T11:03:05.096Z,0.60
2022-11-16T11:05:32.459Z,0.50
2022-11-16T11:08:04.334Z,0.90
2022-11-16T11:10:32.863Z,0.60
2022-11-16T11:13:08.085Z,1.10
2022-11-16T11:15:35.202Z,0.50
2022-11-16T11:18:12.794Z,0.50
2022-11-16T11:20:44.790Z,0.70
2022-11-16T11:23:16.704Z,0.80
2022-11-16T11:25:59.982Z,0.77
2022-11-16T11:28:31.922Z,0.63
2022-11-16T11:31:03.241Z,0.73
2022-11-16T11:33:48.874Z,0.70
2022-11-16T11:36:23.448Z,0.80
2022-11-16T11:38:57.274Z,0.50
2022-11-16T11:41:24.605Z,0.60
2022-11-16T11:44:03.240Z,0.70
2022-11-16T11:46:56.402Z,0.60
2022-11-16T11:49:27.919Z,1.37
2022-11-16T11:51:59.748Z,0.53
2022-11-16T11:54:29.891Z,0.57
2022-11-16T11:56:57.001Z,0.80
2022-11-16T11:59:25.291Z,0.63
2022-11-16T12:01:52.393Z,0.63
2022-11-16T12:04:25.531Z,0.80
2022-11-16T12:07:25.150Z,0.40
2022-11-16T12:09:52.310Z,0.80
2022-11-16T12:12:38.221Z,1.00
2022-11-16T12:15:24.187Z,0.87
2022-11-16T12:18:03.725Z,0.60
2022-11-16T12:20:37.422Z,0.60
2022-11-16T12:23:07.486Z,0.60
2022-11-16T12:25:46.466Z,0.63
2022-11-16T12:28:22.342Z,0.90
2022-11-16T12:31:08.649Z,0.70
2022-11-16T12:33:40.113Z,1.40
2022-11-16T12:36:19.412Z,1.03
2022-11-16T12:38:55.535Z,0.70
2022-11-16T12:41:41.241Z,1.00
2022-11-16T12:44:12.715Z,0.70
2022-11-16T12:46:46.016Z,0.60
2022-11-16T12:49:30.636Z,0.67
2022-11-16T12:52:03.528Z,0.50
2022-11-16T12:54:57.959Z,0.60
2022-11-16T12:57:33.978Z,0.77
2022-11-16T13:00:06.975Z,0.87
2022-11-16T13:02:41.913Z,0.63
2022-11-16T13:05:22.359Z,0.70
2022-11-16T13:07:51.897Z,0.63
2022-11-16T13:10:22.155Z,0.60
2022-11-16T13:13:09.086Z,0.70
2022-11-16T13:15:42.202Z,0.93
2022-11-16T13:18:13.192Z,0.70
2022-11-16T13:20:49.269Z,0.60
2022-11-16T13:23:24.269Z,0.80
2022-11-16T13:25:57.434Z,0.90
2022-11-16T13:28:34.937Z,0.90
2022-11-16T13:31:22.262Z,0.70
2022-11-16T13:33:53.294Z,0.60
2022-11-16T13:36:32.470Z,0.60
2022-11-16T13:38:59.612Z,0.90
2022-11-16T13:41:28.862Z,0.80
2022-11-16T13:43:56.274Z,1.00
2022-11-16T13:46:54.372Z,0.90
2022-11-16T13:49:20.779Z,1.00
2022-11-16T13:51:52.242Z,0.83
2022-11-16T13:54:45.821Z,0.73
2022-11-16T13:57:22.747Z,0.87
2022-11-16T13:59:50.894Z,1.00
2022-11-16T14:02:34.518Z,1.00
2022-11-16T14:05:03.149Z,1.00
2022-11-16T14:07:32.381Z,0.90
2022-11-16T14:09:59.566Z,0.50
2022-11-16T14:12:51.452Z,0.90
2022-11-16T14:15:20.433Z,0.83
2022-11-16T14:17:58.353Z,0.77
2022-11-16T14:20:30.850Z,0.80
2022-11-16T14:22:58.016Z,1.13
2022-11-16T14:25:25.092Z,1.00
2022-11-16T14:27:58.012Z,0.90
2022-11-16T14:30:31.300Z,1.13
2022-11-16T14:32:58.691Z,1.00
2022-11-16T14:35:39.636Z,1.10
2022-11-16T14:38:18.930Z,1.00
2022-11-16T14:40:47.114Z,1.00
2022-11-16T14:43:34.598Z,0.90
2022-11-16T14:46:03.965Z,1.00
2022-11-16T14:48:31.564Z,1.00
2022-11-16T14:51:01.389Z,1.10
2022-11-16T14:53:29.075Z,1.13
2022-11-16T14:56:06.099Z,1.17
2022-11-16T14:58:33.228Z,1.00
2022-11-16T15:01:01.433Z,1.20
2022-11-16T15:03:30.583Z,1.00
2022-11-16T15:05:59.842Z,1.00
2022-11-16T15:08:43.058Z,1.20
2022-11-16T15:11:14.651Z,0.80
2022-11-16T15:13:46.320Z,1.20
2022-11-16T15:16:17.738Z,0.90
2022-11-16T15:19:01.362Z,1.10
2022-11-16T15:21:29.236Z,1.00
2022-11-16T15:26:43.719Z,1.00
2022-11-16T15:29:20.792Z,1.30
2022-11-16T15:31:48.341Z,1.00
2022-11-16T15:34:19.212Z,1.17
2022-11-16T15:36:47.531Z,0.93
2022-11-16T15:39:19.424Z,1.10
2022-11-16T15:41:47.039Z,1.27
2022-11-16T15:44:16.751Z,0.90
2022-11-16T15:46:52.418Z,1.00
2022-11-16T15:49:45.955Z,1.30
2022-11-16T15:52:13.141Z,1.40
2022-11-16T15:54:59.167Z,1.10
2022-11-16T15:57:26.335Z,1.00
2022-11-16T15:59:54.819Z,1.10
2022-11-16T16:02:23.262Z,1.10
2022-11-16T16:04:50.799Z,1.20
2022-11-16T16:07:37.484Z,1.20
2022-11-16T16:10:19.955Z,1.10
2022-11-16T16:12:57.046Z,0.93
2022-11-16T16:15:29.968Z,1.30
2022-11-16T16:17:57.535Z,1.13
2022-11-16T16:20:25.802Z,1.20
2022-11-16T16:22:54.208Z,1.30
2022-11-16T16:25:29.148Z,1.17
2022-11-16T16:27:56.376Z,1.20
2022-11-16T16:30:23.527Z,1.13
2022-11-16T16:32:50.973Z,1.20
2022-11-16T16:35:19.155Z,1.17
2022-11-16T16:37:48.724Z,1.07
2022-11-16T16:40:15.978Z,1.30
2022-11-16T16:42:43.269Z,1.20
2022-11-16T16:45:14.948Z,1.10
2022-11-16T16:47:42.081Z,1.20
2022-11-16T16:50:09.618Z,1.43
2022-11-16T16:52:36.715Z,1.17
2022-11-16T16:55:03.907Z,1.30
2022-11-16T16:57:30.981Z,1.37
2022-11-16T16:59:58.076Z,1.30
2022-11-16T17:02:28.006Z,1.23
2022-11-16T17:04:55.105Z,1.10
2022-11-16T17:07:22.314Z,1.40
2022-11-16T17:09:49.568Z,1.20
2022-11-16T17:12:16.657Z,1.30
2022-11-16T17:14:51.320Z,1.30
2022-11-16T17:17:22.000Z,1.37
2022-11-16T17:19:49.081Z,1.20
2022-11-16T17:22:16.161Z,1.40
2022-11-16T17:24:43.347Z,1.30
2022-11-16T17:27:10.462Z,1.10
2022-11-16T17:29:37.547Z,1.30
2022-11-16T17:32:04.954Z,1.17
2022-11-16T17:34:32.288Z,1.10
2022-11-16T17:36:59.479Z,1.23
2022-11-16T17:39:26.686Z,1.43
2022-11-16T17:41:53.853Z,1.30
2022-11-16T17:44:22.161Z,1.40
2022-11-16T17:46:49.759Z,1.23
2022-11-16T17:49:16.896Z,1.30
2022-11-16T17:51:44.410Z,1.30
2022-11-16T17:54:11.570Z,1.10
2022-11-16T17:56:38.756Z,1.10
2022-11-16T17:59:05.904Z,1.10
2022-11-16T18:01:33.356Z,1.17
2022-11-16T18:04:01.395Z,1.03
2022-11-16T18:06:28.763Z,1.17
2022-11-16T18:08:55.851Z,0.93
2022-11-16T18:11:24.295Z,1.07
2022-11-16T18:13:55.417Z,0.93
2022-11-16T18:16:24.184Z,1.23
2022-11-16T18:18:56.262Z,0.93
2022-11-16T18:21:23.508Z,1.03
2022-11-16T18:23:50.591Z,0.93
2022-11-16T18:26:20.453Z,1.10
2022-11-16T18:28:48.321Z,1.00
2022-11-16T18:31:16.459Z,1.10
2022-11-16T18:33:43.889Z,1.30
2022-11-16T18:36:12.938Z,1.20
2022-11-16T18:38:40.150Z,1.30
2022-11-16T18:41:12.979Z,1.20
2022-11-16T18:43:40.053Z,1.30
2022-11-16T18:46:07.376Z,1.10
2022-11-16T18:48:34.649Z,1.20
2022-11-16T18:51:02.549Z,1.23
2022-11-16T18:53:30.449Z,1.30
2022-11-16T18:55:58.224Z,0.90
2022-11-16T19:01:15.797Z,0.93
2022-11-16T19:03:43.240Z,1.10
2022-11-16T19:06:10.907Z,1.00
2022-11-16T19:08:39.314Z,1.07
2022-11-16T19:11:10.274Z,1.03
2022-11-16T19:13:37.609Z,1.20
2022-11-16T19:16:05.020Z,1.20
2022-11-16T19:18:32.566Z,1.10
2022-11-16T19:21:06.643Z,1.10
2022-11-16T19:23:42.850Z,1.20
2022-11-16T19:26:10.417Z,0.90
2022-11-16T19:28:37.905Z,0.90
2022-11-16T19:31:12.712Z,1.07
2022-11-16T19:33:40.242Z,1.17
2022-11-16T19:36:14.868Z,1.20
2022-11-16T19:38:42.283Z,0.93
2022-11-16T19:41:10.524Z,1.10
2022-11-16T19:43:37.897Z,0.93
2022-11-16T19:46:06.909Z,1.10
2022-11-16T19:48:34.374Z,1.10
2022-11-16T19:51:05.567Z,1.00
2022-11-16T19:53:33.052Z,1.00
2022-11-16T19:56:00.477Z,0.93
2022-11-16T19:58:27.881Z,1.00
2022-11-16T20:01:00.950Z,1.23
2022-11-16T20:03:28.207Z,0.90
2022-11-16T20:06:03.566Z,1.03
2022-11-16T20:08:30.646Z,1.07
2022-11-16T20:10:57.807Z,1.17
2022-11-16T20:13:24.906Z,1.10
2022-11-16T20:15:52.019Z,1.00
2022-11-16T20:18:19.126Z,1.20
2022-11-16T20:20:46.237Z,0.90
2022-11-16T20:23:15.705Z,1.20
2022-11-16T20:25:42.896Z,1.10
2022-11-16T20:28:10.310Z,1.00
2022-11-16T20:30:37.494Z,0.90
2022-11-16T20:33:04.626Z,0.90
2022-11-16T20:35:31.758Z,0.97
2022-11-16T20:37:58.895Z,0.90
2022-11-16T20:40:26.031Z,0.87
2022-11-16T20:42:57.858Z,1.10
2022-11-16T20:45:24.966Z,1.10
2022-11-16T20:47:52.134Z,0.97
2022-11-16T20:50:21.985Z,0.90
2022-11-16T20:52:52.726Z,0.90
2022-11-16T20:55:20.134Z,0.90
2022-11-16T20:57:47.228Z,1.20
2022-11-16T21:00:14.630Z,1.03
2022-11-16T21:02:41.764Z,1.00
2022-11-16T21:05:09.037Z,0.80
2022-11-16T21:07:36.225Z,1.17
2022-11-16T21:10:18.664Z,1.17
2022-11-16T21:13:04.724Z,0.90
2022-11-16T21:15:32.035Z,0.77
2022-11-16T21:17:59.180Z,1.20
2022-11-16T21:20:27.940Z,0.97
2022-11-16T21:22:55.419Z,1.10
2022-11-16T21:25:22.657Z,0.90
2022-11-16T21:27:49.807Z,0.80
2022-11-16T21:30:17.131Z,0.80
2022-11-16T21:32:44.211Z,0.80
2022-11-16T21:35:11.364Z,0.70
2022-11-16T21:37:38.482Z,0.80
2022-11-16T21:40:05.693Z,0.90
2022-11-16T21:42:32.884Z,0.93
2022-11-16T21:45:00.008Z,0.97
2022-11-16T21:47:27.094Z,0.90
2022-11-16T21:50:24.915Z,1.00
2022-11-16T21:52:41.258Z,0.90
2022-11-16T21:55:08.549Z,0.70
2022-11-16T21:57:35.727Z,0.90
2022-11-16T22:00:02.836Z,1.00
2022-11-16T22:02:29.915Z,0.90
2022-11-16T22:05:15.772Z,0.70
2022-11-16T22:07:42.903Z,1.07
2022-11-16T22:10:10.772Z,0.83
2022-11-16T22:12:38.182Z,0.83
2022-11-16T22:15:06.466Z,0.87
2022-11-16T22:17:33.819Z,0.60
2022-11-16T22:20:00.890Z,1.13
2022-11-16T22:22:28.010Z,0.80
2022-11-16T22:24:55.341Z,0.70
2022-11-16T22:27:22.734Z,0.90
2022-11-16T22:29:49.813Z,0.70
2022-11-16T22:32:16.903Z,0.80
2022-11-16T22:34:43.990Z,0.90
2022-11-16T22:37:11.072Z,0.90
2022-11-16T22:39:38.257Z,0.90
2022-11-16T22:42:05.439Z,1.23
2022-11-16T22:44:32.570Z,0.70
2022-11-16T22:46:59.660Z,0.90
2022-11-16T22:49:26.798Z,0.87
2022-11-16T22:51:53.974Z,0.83
2022-11-16T22:54:25.861Z,0.80
2022-11-16T22:56:55.511Z,0.60
2022-11-16T22:59:22.637Z,0.80
2022-11-16T23:01:49.719Z,1.00
2022-11-16T23:04:16.836Z,1.10
2022-11-16T23:06:43.949Z,0.90
2022-11-16T23:09:11.119Z,0.90
2022-11-16T23:11:56.965Z,0.80
2022-11-16T23:14:43.000Z,0.80
2022-11-16T23:17:10.074Z,1.00
2022-11-16T23:19:55.886Z,0.70
2022-11-16T23:22:41.908Z,0.70
2022-11-16T23:25:30.499Z,0.90
2022-11-16T23:28:01.035Z,0.70
2022-11-16T23:30:28.154Z,0.70
2022-11-16T23:32:55.297Z,0.83
2022-11-16T23:35:22.647Z,0.90
2022-11-16T23:37:55.673Z,0.90
2022-11-16T23:40:23.641Z,0.93
2022-11-16T23:43:10.862Z,0.90
2022-11-16T23:45:38.377Z,1.00
2022-11-16T23:48:06.158Z,0.83
2022-11-16T23:50:33.280Z,1.00
2022-11-16T23:53:00.377Z,0.77
2022-11-16T23:55:27.749Z,0.80
2022-11-16T23:57:55.122Z,0.60
